Time;durP1;ratioP1;P1;durP2;ratioP2;P2;SDS_P1;SDS_P2;PMS_P1;PMS_P2;Temp;Humidity;BMP_temperature;BMP_pressure;BME280_temperature;BME280_humidity;BME280_pressure;Samples;Min_cycle;Max_cycle;Signal;HPM_P1;HPM_P2
2023/08/08 00:01:15;;;;;;;;;;;21.30;51.10;;;;;;5111974;28;19924;-58
2023/08/08 00:03:42;;;;;;;;;;;21.30;51.20;;;;;;5100031;28;19938;-59
2023/08/08 00:06:08;;;;;;;;;;;21.30;51.10;;;;;;5094739;28;19988;-58
2023/08/08 00:08:35;;;;;;;;;;;21.30;51.10;;;;;;5090335;28;19973;-58
2023/08/08 00:11:02;;;;;;;;;;;21.30;51.10;;;;;;5114332;28;19923;-58
2023/08/08 00:13:28;;;;;;;;;;;21.30;51.10;;;;;;5120352;28;19924;-58
2023/08/08 00:15:55;;;;;;;;;;;21.30;51.10;;;;;;5113015;28;19925;-58
2023/08/08 00:18:23;;;;;;;;;;;21.30;51.20;;;;;;5100760;28;19924;-58
2023/08/08 00:20:50;;;;;;;;;;;21.30;51.10;;;;;;5100256;28;19931;-57
2023/08/08 00:23:17;;;;;;;;;;;21.30;51.10;;;;;;5091861;28;19977;-58
2023/08/08 00:25:44;;;;;;;;;;;21.30;51.10;;;;;;5092134;28;19924;-59
2023/08/08 00:28:11;;;;;;;;;;;21.30;51.10;;;;;;5097115;28;19924;-58
2023/08/08 00:30:37;;;;;;;;;;;21.30;51.10;;;;;;5114368;28;19927;-58
2023/08/08 00:33:04;;;;;;;;;;;21.30;51.00;;;;;;5092045;28;19927;-58
2023/08/08 00:35:32;;;;;;;;;;;21.30;51.10;;;;;;5094977;28;19930;-59
2023/08/08 00:37:59;;;;;;;;;;;21.30;51.10;;;;;;5110282;28;19924;-59
2023/08/08 00:40:26;;;;;;;;;;;21.30;51.10;;;;;;5093456;28;19923;-58
2023/08/08 00:42:53;;;;;;;;;;;21.30;51.20;;;;;;5096399;28;20034;-59
2023/08/08 00:45:19;;;;;;;;;;;21.30;51.20;;;;;;5116474;27;19969;-59
2023/08/08 00:47:46;;;;;;;;;;;21.30;51.20;;;;;;5113628;27;19930;-58
2023/08/08 00:50:13;;;;;;;;;;;21.30;51.30;;;;;;5113853;28;19924;-59
2023/08/08 00:52:41;;;;;;;;;;;21.30;51.30;;;;;;5097308;28;20323;-58
2023/08/08 00:55:08;;;;;;;;;;;21.30;51.40;;;;;;5097172;28;19935;-58
2023/08/08 00:57:38;;;;;;;;;;;21.30;51.40;;;;;;5093544;28;20106;-57
2023/08/08 01:00:06;;;;;;;;;;;21.30;51.50;;;;;;5118715;27;19947;-58
2023/08/08 01:02:32;;;;;;;;;;;21.30;51.50;;;;;;5095114;27;19984;-57
2023/08/08 01:04:59;;;;;;;;;;;21.30;51.50;;;;;;5095483;28;19941;-59
2023/08/08 01:07:27;;;;;;;;;;;21.30;51.60;;;;;;5094318;27;20522;-59
2023/08/08 01:09:56;;;;;;;;;;;21.30;51.70;;;;;;5094466;28;20373;-59
2023/08/08 01:12:22;;;;;;;;;;;21.30;51.70;;;;;;5114674;27;20368;-59
2023/08/08 01:14:49;;;;;;;;;;;21.30;51.80;;;;;;5116010;27;19967;-59
2023/08/08 01:17:16;;;;;;;;;;;21.30;51.80;;;;;;5121529;27;19955;-59
2023/08/08 01:19:43;;;;;;;;;;;21.30;51.80;;;;;;5098256;28;19981;-58
2023/08/08 01:22:10;;;;;;;;;;;21.30;51.80;;;;;;5115932;27;20431;-59
2023/08/08 01:24:38;;;;;;;;;;;21.30;51.90;;;;;;5098345;27;19970;-58
2023/08/08 01:27:05;;;;;;;;;;;21.30;51.90;;;;;;5093660;28;20310;-59
2023/08/08 01:29:32;;;;;;;;;;;21.30;51.90;;;;;;5114785;27;19932;-58
2023/08/08 01:31:59;;;;;;;;;;;21.30;52.00;;;;;;5092558;28;19931;-58
2023/08/08 01:34:25;;;;;;;;;;;21.30;52.00;;;;;;5096173;27;19935;-59
2023/08/08 01:36:55;;;;;;;;;;;21.30;52.00;;;;;;5112782;28;19924;-59
2023/08/08 01:39:23;;;;;;;;;;;21.30;52.00;;;;;;5113921;27;19950;-59
2023/08/08 01:41:51;;;;;;;;;;;21.30;52.00;;;;;;5114727;27;19931;-58
2023/08/08 01:44:18;;;;;;;;;;;21.30;52.00;;;;;;5095079;27;19928;-58
2023/08/08 01:46:45;;;;;;;;;;;21.30;52.00;;;;;;5112282;27;19924;-58
2023/08/08 01:49:12;;;;;;;;;;;21.30;52.00;;;;;;5104039;27;19924;-59
2023/08/08 01:51:39;;;;;;;;;;;21.30;52.00;;;;;;5098976;27;19928;-58
2023/08/08 01:54:05;;;;;;;;;;;21.30;52.10;;;;;;5099002;28;19923;-59
2023/08/08 01:56:32;;;;;;;;;;;21.30;52.10;;;;;;5108444;27;19931;-58
2023/08/08 01:59:00;;;;;;;;;;;21.30;52.10;;;;;;5102301;28;20093;-59
2023/08/08 02:01:27;;;;;;;;;;;21.30;52.10;;;;;;5095494;28;19932;-59
2023/08/08 02:03:53;;;;;;;;;;;21.30;52.10;;;;;;5115571;27;19965;-58
2023/08/08 02:06:20;;;;;;;;;;;21.30;52.10;;;;;;5119267;27;19932;-59
2023/08/08 02:08:47;;;;;;;;;;;21.30;52.10;;;;;;5096803;28;20446;-58
2023/08/08 02:11:14;;;;;;;;;;;21.30;52.00;;;;;;5098061;27;20372;-59
2023/08/08 02:13:41;;;;;;;;;;;21.30;52.00;;;;;;5106737;27;19932;-59
2023/08/08 02:16:09;;;;;;;;;;;21.30;52.10;;;;;;5098245;28;19924;-58
2023/08/08 02:18:40;;;;;;;;;;;21.30;52.10;;;;;;5102767;27;19976;-59
2023/08/08 02:21:07;;;;;;;;;;;21.20;52.00;;;;;;5094617;28;20369;-59
2023/08/08 02:23:33;;;;;;;;;;;21.30;52.60;;;;;;5094866;28;19928;-59
2023/08/08 02:26:00;;;;;;;;;;;21.30;52.10;;;;;;5101789;28;19931;-59
2023/08/08 02:28:27;;;;;;;;;;;21.20;52.00;;;;;;5094816;27;19924;-59
2023/08/08 02:30:54;;;;;;;;;;;21.30;52.10;;;;;;5124563;27;19931;-58
2023/08/08 02:33:22;;;;;;;;;;;21.30;52.10;;;;;;5113156;28;19931;-59
2023/08/08 02:35:49;;;;;;;;;;;21.30;52.10;;;;;;5095092;28;20286;-58
2023/08/08 02:38:15;;;;;;;;;;;21.30;52.10;;;;;;5103791;27;20590;-58
2023/08/08 02:40:42;;;;;;;;;;;21.20;52.10;;;;;;5095254;28;20369;-59
2023/08/08 02:43:10;;;;;;;;;;;21.20;52.10;;;;;;5098674;28;19976;-59
2023/08/08 02:45:37;;;;;;;;;;;21.30;52.20;;;;;;5119104;27;20428;-58
2023/08/08 02:48:04;;;;;;;;;;;21.20;52.10;;;;;;5101330;27;19924;-58
2023/08/08 02:50:32;;;;;;;;;;;21.30;52.20;;;;;;5099296;27;19930;-58
2023/08/08 02:52:59;;;;;;;;;;;21.30;52.20;;;;;;5100559;27;19927;-59
2023/08/08 02:55:26;;;;;;;;;;;21.30;52.20;;;;;;5093156;28;19924;-59
2023/08/08 02:57:52;;;;;;;;;;;21.20;52.10;;;;;;5096837;28;19924;-58
2023/08/08 03:00:19;;;;;;;;;;;21.20;52.10;;;;;;5114462;27;19927;-59
2023/08/08 03:02:46;;;;;;;;;;;21.30;52.10;;;;;;5087415;28;20399;-59
2023/08/08 03:05:13;;;;;;;;;;;21.20;52.10;;;;;;5100348;28;19928;-58
2023/08/08 03:07:41;;;;;;;;;;;21.20;52.10;;;;;;5099918;27;20382;-58
2023/08/08 03:10:08;;;;;;;;;;;21.30;52.10;;;;;;5100333;28;19924;-58
2023/08/08 03:12:35;;;;;;;;;;;21.20;52.10;;;;;;5121831;27;19923;-59
2023/08/08 03:15:02;;;;;;;;;;;21.20;52.10;;;;;;5127746;27;19932;-59
2023/08/08 03:17:29;;;;;;;;;;;21.20;52.10;;;;;;5123622;27;19934;-58
2023/08/08 03:19:56;;;;;;;;;;;21.20;52.10;;;;;;5096334;28;20426;-59
2023/08/08 03:22:23;;;;;;;;;;;21.20;52.10;;;;;;5089655;28;19927;-59
2023/08/08 03:24:51;;;;;;;;;;;21.20;52.10;;;;;;5093711;28;19928;-58
2023/08/08 03:27:17;;;;;;;;;;;21.20;52.10;;;;;;5122273;27;19931;-59
2023/08/08 03:29:44;;;;;;;;;;;21.20;52.70;;;;;;5100992;28;19924;-58
2023/08/08 03:32:11;;;;;;;;;;;21.20;52.10;;;;;;5120149;27;19999;-59
2023/08/08 03:34:38;;;;;;;;;;;21.20;52.10;;;;;;5092276;28;19932;-58
2023/08/08 03:37:05;;;;;;;;;;;21.20;52.10;;;;;;5099517;28;19931;-59
2023/08/08 03:39:31;;;;;;;;;;;21.20;52.20;;;;;;5096882;28;19931;-59
2023/08/08 03:42:00;;;;;;;;;;;21.20;52.10;;;;;;5118218;28;19923;-59
2023/08/08 03:44:26;;;;;;;;;;;21.20;52.20;;;;;;5095547;28;19973;-58
2023/08/08 03:46:53;;;;;;;;;;;21.20;52.20;;;;;;5106214;28;19930;-58
2023/08/08 03:49:20;;;;;;;;;;;21.20;52.20;;;;;;5104668;28;20201;-58
2023/08/08 03:51:48;;;;;;;;;;;21.20;52.20;;;;;;5111555;28;19931;-58
2023/08/08 03:54:15;;;;;;;;;;;21.20;52.20;;;;;;5115854;28;19954;-58
2023/08/08 03:56:41;;;;;;;;;;;21.20;52.20;;;;;;5113819;28;19977;-58
2023/08/08 03:59:09;;;;;;;;;;;21.20;52.20;;;;;;5089664;28;20006;-58
2023/08/08 04:01:37;;;;;;;;;;;21.20;52.20;;;;;;5093460;28;19923;-59
2023/08/08 04:04:05;;;;;;;;;;;21.20;52.20;;;;;;5093760;28;19924;-59
2023/08/08 04:06:31;;;;;;;;;;;21.20;52.20;;;;;;5084075;28;19924;-59
2023/08/08 04:08:58;;;;;;;;;;;21.20;52.20;;;;;;5099103;28;19928;-60
2023/08/08 04:11:26;;;;;;;;;;;21.20;52.20;;;;;;5099386;28;19924;-59
2023/08/08 04:13:53;;;;;;;;;;;21.20;52.20;;;;;;5112742;28;19925;-59
2023/08/08 04:16:21;;;;;;;;;;;21.20;52.20;;;;;;5128445;27;19924;-59
2023/08/08 04:18:48;;;;;;;;;;;21.20;52.20;;;;;;5102679;27;19924;-59
2023/08/08 04:21:14;;;;;;;;;;;21.20;52.20;;;;;;5103607;28;19923;-59
2023/08/08 04:23:41;;;;;;;;;;;21.20;52.20;;;;;;5100811;27;20296;-59
2023/08/08 04:26:08;;;;;;;;;;;21.20;52.20;;;;;;5103447;28;19945;-59
2023/08/08 04:28:35;;;;;;;;;;;21.20;52.20;;;;;;5099317;27;19923;-59
2023/08/08 04:31:01;;;;;;;;;;;21.20;52.20;;;;;;5094927;28;19928;-59
2023/08/08 04:33:30;;;;;;;;;;;21.20;52.20;;;;;;5117050;27;19930;-59
2023/08/08 04:35:56;;;;;;;;;;;21.20;52.20;;;;;;5097746;27;19928;-59
2023/08/08 04:38:23;;;;;;;;;;;21.20;52.20;;;;;;5098841;28;20000;-59
2023/08/08 04:40:50;;;;;;;;;;;21.20;52.20;;;;;;5116373;27;19930;-58
2023/08/08 04:43:16;;;;;;;;;;;21.20;52.20;;;;;;5099481;28;19946;-59
2023/08/08 04:45:43;;;;;;;;;;;21.20;52.20;;;;;;5094567;28;19935;-58
2023/08/08 04:48:10;;;;;;;;;;;21.20;52.20;;;;;;5086804;28;19928;-59
2023/08/08 04:50:39;;;;;;;;;;;21.20;52.20;;;;;;5123790;27;19920;-59
2023/08/08 04:53:05;;;;;;;;;;;21.20;52.20;;;;;;5082779;28;20369;-59
2023/08/08 04:55:32;;;;;;;;;;;21.20;52.20;;;;;;5094999;28;19980;-59
2023/08/08 04:57:59;;;;;;;;;;;21.20;52.20;;;;;;5105927;28;20015;-60
2023/08/08 05:00:27;;;;;;;;;;;21.20;52.20;;;;;;5098472;27;19938;-59
2023/08/08 05:02:54;;;;;;;;;;;21.20;52.20;;;;;;5101031;27;20307;-59
2023/08/08 05:05:21;;;;;;;;;;;21.20;52.30;;;;;;5096689;28;19928;-60
2023/08/08 05:07:49;;;;;;;;;;;21.20;52.30;;;;;;5095787;28;19969;-58
2023/08/08 05:10:15;;;;;;;;;;;21.20;52.30;;;;;;5103802;27;19927;-59
2023/08/08 05:12:42;;;;;;;;;;;21.20;52.30;;;;;;5107614;27;20345;-59
2023/08/08 05:15:09;;;;;;;;;;;21.20;52.90;;;;;;5110533;28;20260;-59
2023/08/08 05:17:36;;;;;;;;;;;21.20;52.20;;;;;;5120109;27;20315;-59
2023/08/08 05:20:03;;;;;;;;;;;21.20;52.20;;;;;;5098248;28;20323;-59
2023/08/08 05:22:30;;;;;;;;;;;21.20;52.20;;;;;;5104965;27;19924;-59
2023/08/08 05:24:58;;;;;;;;;;;21.20;52.30;;;;;;5113879;27;19931;-59
2023/08/08 05:27:25;;;;;;;;;;;21.20;52.30;;;;;;5103208;28;19928;-59
2023/08/08 05:29:52;;;;;;;;;;;21.20;52.30;;;;;;5104090;28;19927;-59
2023/08/08 05:32:18;;;;;;;;;;;21.20;52.30;;;;;;5100470;28;19934;-59
2023/08/08 05:34:45;;;;;;;;;;;21.20;52.30;;;;;;5122554;27;19954;-58
2023/08/08 05:37:12;;;;;;;;;;;21.20;52.30;;;;;;5113045;28;19923;-60
2023/08/08 05:39:39;;;;;;;;;;;21.20;52.30;;;;;;5098662;28;19930;-59
2023/08/08 05:42:07;;;;;;;;;;;21.20;52.30;;;;;;5096907;28;19931;-60
2023/08/08 05:44:34;;;;;;;;;;;21.20;52.30;;;;;;5102898;27;19942;-59
2023/08/08 05:47:01;;;;;;;;;;;21.20;52.30;;;;;;5091251;28;19934;-59
2023/08/08 05:49:27;;;;;;;;;;;21.20;52.40;;;;;;5105182;27;19923;-59
2023/08/08 05:51:54;;;;;;;;;;;21.20;52.40;;;;;;5095479;28;19924;-59
2023/08/08 05:54:21;;;;;;;;;;;21.20;52.40;;;;;;5102815;27;19976;-59
2023/08/08 05:56:48;;;;;;;;;;;21.20;52.40;;;;;;5109660;27;19931;-58
2023/08/08 05:59:16;;;;;;;;;;;21.20;52.40;;;;;;5105089;27;19977;-59
2023/08/08 06:01:44;;;;;;;;;;;21.20;52.40;;;;;;5121293;27;20366;-59
2023/08/08 06:04:11;;;;;;;;;;;21.20;52.40;;;;;;5120286;27;19934;-59
2023/08/08 06:06:38;;;;;;;;;;;21.20;52.40;;;;;;5117656;27;19931;-59
2023/08/08 06:09:04;;;;;;;;;;;21.20;52.50;;;;;;5101927;28;20380;-59
2023/08/08 06:11:31;;;;;;;;;;;21.20;52.40;;;;;;5101029;27;20379;-58
2023/08/08 06:13:58;;;;;;;;;;;21.20;52.40;;;;;;5095628;28;20559;-59
2023/08/08 06:16:26;;;;;;;;;;;21.20;52.50;;;;;;5112814;27;19932;-58
2023/08/08 06:18:53;;;;;;;;;;;21.20;52.50;;;;;;5096049;28;19934;-59
2023/08/08 06:21:20;;;;;;;;;;;21.20;53.10;;;;;;5093201;27;19928;-59
2023/08/08 06:23:47;;;;;;;;;;;21.20;52.50;;;;;;5100607;27;19976;-59
2023/08/08 06:26:14;;;;;;;;;;;21.20;52.50;;;;;;5100249;28;19955;-59
2023/08/08 06:28:41;;;;;;;;;;;21.20;52.50;;;;;;5125890;27;19968;-59
2023/08/08 06:31:07;;;;;;;;;;;21.20;52.50;;;;;;5115375;27;19930;-60
2023/08/08 06:33:35;;;;;;;;;;;21.20;53.10;;;;;;5106804;27;19927;-59
2023/08/08 06:36:03;;;;;;;;;;;21.20;52.60;;;;;;5096273;28;19924;-62
2023/08/08 06:38:33;;;;;;;;;;;21.20;52.60;;;;;;5115486;27;19934;-62
2023/08/08 06:41:00;;;;;;;;;;;21.20;52.60;;;;;;5116350;27;19924;-63
2023/08/08 06:43:27;;;;;;;;;;;21.20;52.60;;;;;;5096050;27;19924;-62
2023/08/08 06:45:54;;;;;;;;;;;21.20;52.50;;;;;;5117592;27;19931;-61
2023/08/08 06:48:20;;;;;;;;;;;21.20;52.50;;;;;;5110723;28;20465;-60
2023/08/08 06:50:48;;;;;;;;;;;21.20;52.40;;;;;;5095035;27;19972;-61
2023/08/08 06:53:15;;;;;;;;;;;21.20;52.40;;;;;;5095940;28;19927;-61
2023/08/08 06:55:42;;;;;;;;;;;21.20;52.40;;;;;;5100267;27;19987;-62
2023/08/08 06:58:09;;;;;;;;;;;21.20;52.40;;;;;;5093812;28;20128;-61
2023/08/08 07:00:36;;;;;;;;;;;21.20;52.40;;;;;;5113478;27;19969;-60
2023/08/08 07:03:02;;;;;;;;;;;21.20;52.30;;;;;;5113667;27;20151;-60
2023/08/08 07:05:30;;;;;;;;;;;21.20;52.40;;;;;;5091484;28;19924;-60
2023/08/08 07:07:58;;;;;;;;;;;21.20;52.30;;;;;;5093387;27;20289;-59
2023/08/08 07:10:25;;;;;;;;;;;21.20;52.30;;;;;;5099394;27;20000;-61
2023/08/08 07:12:51;;;;;;;;;;;21.20;52.30;;;;;;5111225;28;20362;-61
2023/08/08 07:15:18;;;;;;;;;;;21.20;52.30;;;;;;5094015;27;19955;-60
2023/08/08 07:17:45;;;;;;;;;;;21.20;52.30;;;;;;5114400;27;20376;-60
2023/08/08 07:20:14;;;;;;;;;;;21.20;52.20;;;;;;5119436;27;19923;-61
2023/08/08 07:22:41;;;;;;;;;;;21.20;52.20;;;;;;5094114;28;19924;-60
2023/08/08 07:25:10;;;;;;;;;;;21.20;52.20;;;;;;5095303;28;19919;-61
2023/08/08 07:27:36;;;;;;;;;;;21.20;52.10;;;;;;5096319;28;19924;-59
2023/08/08 07:30:03;;;;;;;;;;;21.20;52.00;;;;;;5095099;28;19980;-59
2023/08/08 07:32:30;;;;;;;;;;;21.20;52.00;;;;;;5119801;27;19927;-59
2023/08/08 07:34:57;;;;;;;;;;;21.20;51.90;;;;;;5124669;27;19932;-60
2023/08/08 07:37:24;;;;;;;;;;;21.20;51.90;;;;;;5097902;28;19928;-61
2023/08/08 07:39:51;;;;;;;;;;;21.20;51.80;;;;;;5094010;28;19924;-61
2023/08/08 07:42:19;;;;;;;;;;;21.20;51.80;;;;;;5098464;28;19924;-60
2023/08/08 07:44:46;;;;;;;;;;;21.20;51.80;;;;;;5117176;27;20442;-60
2023/08/08 07:47:12;;;;;;;;;;;21.20;51.90;;;;;;5098271;28;19957;-60
2023/08/08 07:49:39;;;;;;;;;;;21.20;51.90;;;;;;5115039;28;19928;-59
2023/08/08 07:52:06;;;;;;;;;;;21.20;51.90;;;;;;5097537;28;19924;-62
2023/08/08 07:54:33;;;;;;;;;;;21.20;52.00;;;;;;5097581;28;19951;-59
2023/08/08 07:57:00;;;;;;;;;;;21.20;52.00;;;;;;5097549;28;20368;-60
2023/08/08 07:59:28;;;;;;;;;;;21.20;52.00;;;;;;5102584;28;19928;-62
2023/08/08 08:01:55;;;;;;;;;;;21.20;52.10;;;;;;5121060;27;19935;-61
2023/08/08 08:04:22;;;;;;;;;;;21.20;52.20;;;;;;5115636;28;19930;-60
2023/08/08 08:06:48;;;;;;;;;;;21.20;52.20;;;;;;5096714;28;19930;-60
2023/08/08 08:09:15;;;;;;;;;;;21.20;52.20;;;;;;5118955;27;19924;-61
2023/08/08 08:11:42;;;;;;;;;;;21.20;52.30;;;;;;5096923;28;19928;-61
2023/08/08 08:14:08;;;;;;;;;;;21.20;52.30;;;;;;5124080;27;19998;-63
2023/08/08 08:16:36;;;;;;;;;;;21.20;52.30;;;;;;5102921;28;20479;-63
2023/08/08 08:19:04;;;;;;;;;;;21.20;52.30;;;;;;5115090;28;20663;-63
2023/08/08 08:21:30;;;;;;;;;;;21.20;52.40;;;;;;5097748;28;19924;-61
2023/08/08 08:23:57;;;;;;;;;;;21.30;52.40;;;;;;5120733;27;19946;-61
2023/08/08 08:26:24;;;;;;;;;;;21.30;52.40;;;;;;5102692;28;19993;-61
2023/08/08 08:28:51;;;;;;;;;;;21.30;52.50;;;;;;5096836;28;19928;-62
2023/08/08 08:31:17;;;;;;;;;;;21.30;52.40;;;;;;5095048;28;19973;-62
2023/08/08 08:33:46;;;;;;;;;;;21.30;52.40;;;;;;5096724;28;19945;-62
2023/08/08 08:36:13;;;;;;;;;;;21.30;52.40;;;;;;5102575;28;19924;-60
2023/08/08 08:38:40;;;;;;;;;;;21.30;52.40;;;;;;5098424;28;19935;-62
2023/08/08 08:41:07;;;;;;;;;;;21.30;52.40;;;;;;5081244;28;19973;-61
2023/08/08 08:43:34;;;;;;;;;;;21.30;52.30;;;;;;5098868;27;19927;-61
2023/08/08 08:46:00;;;;;;;;;;;21.30;52.30;;;;;;5104270;28;19924;-61
2023/08/08 08:48:27;;;;;;;;;;;21.30;52.30;;;;;;5125184;27;19923;-61
2023/08/08 08:50:57;;;;;;;;;;;21.30;52.30;;;;;;5096627;28;19932;-60
2023/08/08 08:53:24;;;;;;;;;;;21.30;52.30;;;;;;5099314;28;19927;-60
2023/08/08 08:55:51;;;;;;;;;;;21.30;52.20;;;;;;5100946;27;20269;-60
2023/08/08 08:58:18;;;;;;;;;;;21.30;52.20;;;;;;5100295;27;19930;-59
2023/08/08 09:00:46;;;;;;;;;;;21.30;52.10;;;;;;5099673;28;19931;-59
2023/08/08 09:03:13;;;;;;;;;;;21.30;51.90;;;;;;5112788;27;20019;-60
2023/08/08 09:05:40;;;;;;;;;;;21.30;51.90;;;;;;5098392;27;19927;-60
2023/08/08 09:08:09;;;;;;;;;;;21.30;51.80;;;;;;5101239;28;19949;-61
2023/08/08 09:10:36;;;;;;;;;;;21.30;51.70;;;;;;5100073;28;19936;-60
2023/08/08 09:13:02;;;;;;;;;;;21.30;51.60;;;;;;5096441;28;19932;-61
2023/08/08 09:15:30;;;;;;;;;;;21.30;51.60;;;;;;5097552;28;19927;-60
2023/08/08 09:17:57;;;;;;;;;;;21.30;51.50;;;;;;5127760;27;19924;-61
2023/08/08 09:20:24;;;;;;;;;;;21.30;51.60;;;;;;5099109;27;19928;-63
2023/08/08 09:22:52;;;;;;;;;;;21.30;51.70;;;;;;5111151;27;19928;-62
2023/08/08 09:25:21;;;;;;;;;;;21.30;51.70;;;;;;5081152;27;20018;-62
2023/08/08 09:27:48;;;;;;;;;;;21.30;51.80;;;;;;5096375;27;20493;-62
2023/08/08 09:30:14;;;;;;;;;;;21.30;51.80;;;;;;5095281;28;20475;-63
2023/08/08 09:32:41;;;;;;;;;;;21.30;51.80;;;;;;5114868;27;20303;-63
2023/08/08 09:35:09;;;;;;;;;;;21.40;51.80;;;;;;5095563;28;19935;-63
2023/08/08 09:37:36;;;;;;;;;;;21.30;51.70;;;;;;5099003;27;19923;-63
2023/08/08 09:40:03;;;;;;;;;;;21.40;51.80;;;;;;5099876;28;19924;-63
2023/08/08 09:42:31;;;;;;;;;;;21.40;51.70;;;;;;5099519;27;19923;-62
2023/08/08 09:44:58;;;;;;;;;;;21.40;51.70;;;;;;5100582;28;19923;-61
2023/08/08 09:47:30;;;;;;;;;;;21.30;51.60;;;;;;5118552;27;19931;-60
2023/08/08 09:49:58;;;;;;;;;;;21.40;51.60;;;;;;5112650;27;19928;-61
2023/08/08 09:52:24;;;;;;;;;;;21.40;51.60;;;;;;5115315;27;19932;-61
2023/08/08 09:54:51;;;;;;;;;;;21.30;51.40;;;;;;5100510;28;19928;-61
2023/08/08 09:57:18;;;;;;;;;;;21.30;51.30;;;;;;5100028;27;19924;-61
2023/08/08 09:59:47;;;;;;;;;;;21.30;51.30;;;;;;5120646;27;19927;-60
2023/08/08 10:02:14;;;;;;;;;;;21.30;51.30;;;;;;5107137;28;19970;-61
2023/08/08 10:04:41;;;;;;;;;;;21.40;51.40;;;;;;5108825;28;19924;-61
2023/08/08 10:07:08;;;;;;;;;;;21.30;51.30;;;;;;5097093;28;19930;-61
2023/08/08 10:09:34;;;;;;;;;;;21.30;51.30;;;;;;5101221;27;19927;-61
2023/08/08 10:12:01;;;;;;;;;;;21.30;51.20;;;;;;5100027;28;20387;-61
2023/08/08 10:14:29;;;;;;;;;;;21.40;51.30;;;;;;5111489;27;19924;-60
2023/08/08 10:16:58;;;;;;;;;;;21.40;51.30;;;;;;5111254;28;19927;-61
2023/08/08 10:19:24;;;;;;;;;;;21.30;51.20;;;;;;5098395;28;20295;-62
2023/08/08 10:21:56;;;;;;;;;;;21.30;51.30;;;;;;5100650;28;19969;-64
2023/08/08 10:24:23;;;;;;;;;;;21.30;51.30;;;;;;5123421;27;19997;-62
2023/08/08 10:26:53;;;;;;;;;;;21.40;51.60;;;;;;5108262;28;19936;-61
2023/08/08 10:29:20;;;;;;;;;;;21.40;51.60;;;;;;5096665;28;20008;-61
2023/08/08 10:31:51;;;;;;;;;;;21.30;51.60;;;;;;5098126;28;19931;-62
2023/08/08 10:34:20;;;;;;;;;;;21.40;51.80;;;;;;5096380;27;20452;-64
2023/08/08 10:36:50;;;;;;;;;;;21.40;51.80;;;;;;5088076;28;19924;-62
2023/08/08 10:39:18;;;;;;;;;;;21.40;51.80;;;;;;5094012;28;19924;-62
2023/08/08 10:41:45;;;;;;;;;;;21.40;51.90;;;;;;5076482;28;19927;-62
2023/08/08 10:44:12;;;;;;;;;;;21.40;51.90;;;;;;5093918;28;20267;-62
2023/08/08 10:46:41;;;;;;;;;;;21.50;52.00;;;;;;5094487;28;20326;-62
2023/08/08 10:49:07;;;;;;;;;;;21.50;52.00;;;;;;5128027;27;19923;-62
2023/08/08 10:51:37;;;;;;;;;;;21.50;52.00;;;;;;5093699;28;19965;-61
2023/08/08 10:54:05;;;;;;;;;;;21.50;52.10;;;;;;5091516;28;19924;-62
2023/08/08 10:56:32;;;;;;;;;;;21.50;52.10;;;;;;5113948;27;19927;-62
2023/08/08 10:59:00;;;;;;;;;;;21.50;52.10;;;;;;5085548;28;21246;-62
2023/08/08 11:01:27;;;;;;;;;;;21.60;52.20;;;;;;5093647;28;20330;-62
2023/08/08 11:03:54;;;;;;;;;;;21.60;52.20;;;;;;5094557;28;19931;-61
2023/08/08 11:06:21;;;;;;;;;;;21.60;52.20;;;;;;5096088;27;19924;-62
2023/08/08 11:08:49;;;;;;;;;;;21.60;52.20;;;;;;5106702;27;19931;-62
2023/08/08 11:11:16;;;;;;;;;;;21.60;52.20;;;;;;5095388;27;19923;-61
2023/08/08 11:13:42;;;;;;;;;;;21.60;52.30;;;;;;5095751;28;19924;-62
2023/08/08 11:16:09;;;;;;;;;;;21.60;52.30;;;;;;5098976;28;19924;-61
2023/08/08 11:18:36;;;;;;;;;;;21.60;52.30;;;;;;5092544;28;19927;-60
2023/08/08 11:21:10;;;;;;;;;;;21.60;52.30;;;;;;5091812;28;19943;-61
2023/08/08 11:23:38;;;;;;;;;;;21.60;52.30;;;;;;5094046;28;19924;-62
2023/08/08 11:26:06;;;;;;;;;;;21.60;52.30;;;;;;5095196;28;19938;-61
2023/08/08 11:28:33;;;;;;;;;;;21.60;52.40;;;;;;5092779;28;19938;-61
2023/08/08 11:31:00;;;;;;;;;;;21.70;52.50;;;;;;5113760;28;19934;-63
2023/08/08 11:33:26;;;;;;;;;;;21.70;52.50;;;;;;5092804;28;19931;-61
2023/08/08 11:35:53;;;;;;;;;;;21.70;52.50;;;;;;5094694;28;19930;-62
2023/08/08 11:38:20;;;;;;;;;;;21.70;52.50;;;;;;5097970;28;19945;-64
2023/08/08 11:40:47;;;;;;;;;;;21.70;52.50;;;;;;5095995;28;19924;-65
2023/08/08 11:43:15;;;;;;;;;;;21.70;52.50;;;;;;5111939;28;20041;-59
2023/08/08 11:45:42;;;;;;;;;;;21.70;52.50;;;;;;5092556;28;19931;-59
2023/08/08 11:48:08;;;;;;;;;;;21.70;52.60;;;;;;5092257;28;19924;-59
2023/08/08 11:50:37;;;;;;;;;;;21.70;52.60;;;;;;5092256;28;19931;-60
2023/08/08 11:53:04;;;;;;;;;;;21.70;52.60;;;;;;5093050;28;19927;-59
2023/08/08 11:55:31;;;;;;;;;;;21.70;52.60;;;;;;5092907;28;19931;-59
2023/08/08 11:57:59;;;;;;;;;;;21.70;52.50;;;;;;5111877;28;19984;-60
2023/08/08 12:00:29;;;;;;;;;;;21.70;52.60;;;;;;5095950;28;20026;-59
2023/08/08 12:02:55;;;;;;;;;;;21.70;52.60;;;;;;5094937;28;19957;-59
2023/08/08 12:05:22;;;;;;;;;;;21.70;52.60;;;;;;5090341;28;19932;-59
2023/08/08 12:07:50;;;;;;;;;;;21.70;52.70;;;;;;5090254;28;19981;-61
2023/08/08 12:10:17;;;;;;;;;;;21.70;53.50;;;;;;5092630;28;20285;-62
2023/08/08 12:12:44;;;;;;;;;;;21.60;53.80;;;;;;5091569;28;19973;-59
2023/08/08 12:15:11;;;;;;;;;;;21.60;53.90;;;;;;5113026;28;19928;-65
2023/08/08 12:17:39;;;;;;;;;;;21.60;53.90;;;;;;5101738;28;19946;-62
2023/08/08 12:20:06;;;;;;;;;;;21.50;53.90;;;;;;5096988;28;19997;-62
2023/08/08 12:22:33;;;;;;;;;;;21.50;54.10;;;;;;5098232;28;19931;-62
2023/08/08 12:25:00;;;;;;;;;;;21.50;54.10;;;;;;5095628;28;19924;-59
2023/08/08 12:27:27;;;;;;;;;;;21.50;54.10;;;;;;5126027;28;19926;-60
2023/08/08 12:29:54;;;;;;;;;;;21.50;54.00;;;;;;5095418;28;19928;-58
2023/08/08 12:32:23;;;;;;;;;;;21.40;53.90;;;;;;5112870;28;19923;-58
2023/08/08 12:34:51;;;;;;;;;;;21.40;53.90;;;;;;5099706;28;19931;-60
2023/08/08 12:37:18;;;;;;;;;;;21.40;53.80;;;;;;5104371;27;19969;-59
2023/08/08 12:39:45;;;;;;;;;;;21.40;53.80;;;;;;5104203;28;19927;-59
2023/08/08 12:42:12;;;;;;;;;;;21.40;53.80;;;;;;5115473;27;19935;-61
2023/08/08 12:44:39;;;;;;;;;;;21.40;53.70;;;;;;5095141;28;19932;-58
2023/08/08 12:47:06;;;;;;;;;;;21.40;53.70;;;;;;5101597;27;20456;-60
2023/08/08 12:49:33;;;;;;;;;;;21.50;53.70;;;;;;5114139;27;19956;-60
2023/08/08 12:52:01;;;;;;;;;;;21.50;53.70;;;;;;5095294;28;19924;-61
2023/08/08 12:54:28;;;;;;;;;;;21.50;53.70;;;;;;5099802;27;19960;-60
2023/08/08 12:56:55;;;;;;;;;;;21.50;53.70;;;;;;5098453;27;19924;-60
2023/08/08 12:59:21;;;;;;;;;;;21.50;53.60;;;;;;5100205;27;19931;-58
2023/08/08 13:01:48;;;;;;;;;;;21.50;53.70;;;;;;5094702;28;19934;-63
2023/08/08 13:04:15;;;;;;;;;;;21.50;53.60;;;;;;5097128;27;19924;-62
2023/08/08 13:06:42;;;;;;;;;;;21.50;53.60;;;;;;5100482;27;20253;-60
2023/08/08 13:09:10;;;;;;;;;;;21.60;53.70;;;;;;5098739;28;19924;-60
2023/08/08 13:11:37;;;;;;;;;;;21.50;53.70;;;;;;5116075;27;19934;-61
2023/08/08 13:14:04;;;;;;;;;;;21.50;53.80;;;;;;5115050;27;19927;-61
2023/08/08 13:16:31;;;;;;;;;;;21.50;53.70;;;;;;5096392;28;19923;-60
2023/08/08 13:18:57;;;;;;;;;;;21.60;53.80;;;;;;5096662;28;19931;-60
2023/08/08 13:21:24;;;;;;;;;;;21.60;53.80;;;;;;5099038;27;19924;-62
2023/08/08 13:23:51;;;;;;;;;;;21.60;53.80;;;;;;5096073;28;19928;-61
2023/08/08 13:26:19;;;;;;;;;;;21.60;53.80;;;;;;5095999;28;19924;-61
2023/08/08 13:28:46;;;;;;;;;;;21.60;53.90;;;;;;5097203;28;19924;-59
2023/08/08 13:31:13;;;;;;;;;;;21.60;53.90;;;;;;5096830;28;19923;-61
2023/08/08 13:33:40;;;;;;;;;;;21.60;53.90;;;;;;5107126;27;19927;-60
2023/08/08 13:36:06;;;;;;;;;;;21.60;53.90;;;;;;5096975;28;19989;-60
2023/08/08 13:38:34;;;;;;;;;;;21.60;53.80;;;;;;5106367;27;20394;-61
2023/08/08 13:41:01;;;;;;;;;;;21.60;53.80;;;;;;5102619;28;19923;-62
2023/08/08 13:43:30;;;;;;;;;;;21.60;53.90;;;;;;5130712;27;19934;-61
2023/08/08 13:45:57;;;;;;;;;;;21.60;53.90;;;;;;5096579;28;19934;-61
2023/08/08 13:48:23;;;;;;;;;;;21.60;54.00;;;;;;5129690;27;19938;-60
2023/08/08 13:50:50;;;;;;;;;;;21.60;54.00;;;;;;5127201;27;19931;-62
2023/08/08 13:53:17;;;;;;;;;;;21.60;54.00;;;;;;5128378;27;19931;-63
2023/08/08 13:55:44;;;;;;;;;;;21.60;54.10;;;;;;5105372;28;19944;-62
2023/08/08 13:58:11;;;;;;;;;;;21.50;54.10;;;;;;5098588;28;19971;-61
2023/08/08 14:00:39;;;;;;;;;;;21.60;54.10;;;;;;5124778;27;19931;-60
2023/08/08 14:03:06;;;;;;;;;;;21.50;54.00;;;;;;5113949;28;20330;-61
2023/08/08 14:05:33;;;;;;;;;;;21.60;54.10;;;;;;5108830;27;19938;-63
2023/08/08 14:08:00;;;;;;;;;;;21.50;54.00;;;;;;5120507;27;19928;-64
2023/08/08 14:10:27;;;;;;;;;;;21.60;54.10;;;;;;5100826;27;19934;-63
2023/08/08 14:12:54;;;;;;;;;;;21.60;54.10;;;;;;5104026;27;20408;-62
2023/08/08 14:15:20;;;;;;;;;;;21.60;54.00;;;;;;5123833;27;19973;-62